sensor_id;sensor_type;location;lat;lon;timestamp;P1;durP1;ratioP1;P2;durP2;ratioP2
64915;SDS011;51427;-27.442;153.014;2022-10-16T00:01:25;4.05;;;1.42;;
64915;SDS011;51427;-27.442;153.014;2022-10-16T00:03:55;5.60;;;1.23;;
64915;SDS011;51427;-27.442;153.014;2022-10-16T00:06:23;4.30;;;1.35;;
64915;SDS011;51427;-27.442;153.014;2022-10-16T00:08:51;8.05;;;1.77;;
64915;SDS011;51427;-27.442;153.014;2022-10-16T00:11:21;5.43;;;1.50;;
64915;SDS011;51427;-27.442;153.014;2022-10-16T00:13:50;4.45;;;1.50;;
64915;SDS011;51427;-27.442;153.014;2022-10-16T00:16:20;3.63;;;1.33;;
64915;SDS011;51427;-27.442;153.014;2022-10-16T00:18:47;3.63;;;1.40;;
64915;SDS011;51427;-27.442;153.014;2022-10-16T00:21:16;3.55;;;1.35;;
64915;SDS011;51427;-27.442;153.014;2022-10-16T00:23:58;4.93;;;1.33;;
64915;SDS011;51427;-27.442;153.014;2022-10-16T00:26:31;5.45;;;1.65;;
64915;SDS011;51427;-27.442;153.014;2022-10-16T00:29:02;6.43;;;1.58;;
64915;SDS011;51427;-27.442;153.014;2022-10-16T00:31:29;5.70;;;1.63;;
64915;SDS011;51427;-27.442;153.014;2022-10-16T00:33:57;5.28;;;1.58;;
64915;SDS011;51427;-27.442;153.014;2022-10-16T00:36:26;4.78;;;1.55;;
64915;SDS011;51427;-27.442;153.014;2022-10-16T00:38:54;4.03;;;1.60;;
64915;SDS011;51427;-27.442;153.014;2022-10-16T00:41:23;3.80;;;1.52;;
64915;SDS011;51427;-27.442;153.014;2022-10-16T00:43:52;4.00;;;1.45;;
64915;SDS011;51427;-27.442;153.014;2022-10-16T00:49:01;6.25;;;2.45;;
64915;SDS011;51427;-27.442;153.014;2022-10-16T00:51:33;6.72;;;1.52;;
64915;SDS011;51427;-27.442;153.014;2022-10-16T00:54:03;7.75;;;1.80;;
64915;SDS011;51427;-27.442;153.014;2022-10-16T00:56:35;4.78;;;1.75;;
64915;SDS011;51427;-27.442;153.014;2022-10-16T00:59:07;6.93;;;1.58;;
64915;SDS011;51427;-27.442;153.014;2022-10-16T01:01:45;3.20;;;1.52;;
64915;SDS011;51427;-27.442;153.014;2022-10-16T01:04:12;5.22;;;1.45;;
64915;SDS011;51427;-27.442;153.014;2022-10-16T01:06:47;2.97;;;1.33;;
64915;SDS011;51427;-27.442;153.014;2022-10-16T01:09:22;7.10;;;1.35;;
64915;SDS011;51427;-27.442;153.014;2022-10-16T01:12:10;7.15;;;1.70;;
64915;SDS011;51427;-27.442;153.014;2022-10-16T01:15:23;4.03;;;1.40;;
64915;SDS011;51427;-27.442;153.014;2022-10-16T01:28:19;5.00;;;1.67;;
64915;SDS011;51427;-27.442;153.014;2022-10-16T01:30:52;4.00;;;1.52;;
64915;SDS011;51427;-27.442;153.014;2022-10-16T01:33:25;3.95;;;1.40;;
64915;SDS011;51427;-27.442;153.014;2022-10-16T01:36:02;4.80;;;1.02;;
64915;SDS011;51427;-27.442;153.014;2022-10-16T01:38:41;3.42;;;1.38;;
64915;SDS011;51427;-27.442;153.014;2022-10-16T01:41:14;4.05;;;1.40;;
64915;SDS011;51427;-27.442;153.014;2022-10-16T01:46:57;5.03;;;1.50;;
64915;SDS011;51427;-27.442;153.014;2022-10-16T01:49:27;4.13;;;1.67;;
64915;SDS011;51427;-27.442;153.014;2022-10-16T01:51:59;4.70;;;1.67;;
64915;SDS011;51427;-27.442;153.014;2022-10-16T01:54:30;3.85;;;1.35;;
64915;SDS011;51427;-27.442;153.014;2022-10-16T01:56:59;2.72;;;1.23;;
64915;SDS011;51427;-27.442;153.014;2022-10-16T01:59:28;3.03;;;1.15;;
64915;SDS011;51427;-27.442;153.014;2022-10-16T02:01:59;4.07;;;1.80;;
64915;SDS011;51427;-27.442;153.014;2022-10-16T02:04:33;1.95;;;1.10;;
64915;SDS011;51427;-27.442;153.014;2022-10-16T02:07:04;4.47;;;1.92;;
64915;SDS011;51427;-27.442;153.014;2022-10-16T02:09:33;3.97;;;1.55;;
64915;SDS011;51427;-27.442;153.014;2022-10-16T02:12:04;3.10;;;1.58;;
64915;SDS011;51427;-27.442;153.014;2022-10-16T02:14:39;2.80;;;1.27;;
64915;SDS011;51427;-27.442;153.014;2022-10-16T02:17:11;4.25;;;1.52;;
64915;SDS011;51427;-27.442;153.014;2022-10-16T02:19:40;5.35;;;1.88;;
64915;SDS011;51427;-27.442;153.014;2022-10-16T02:22:08;6.15;;;1.60;;
64915;SDS011;51427;-27.442;153.014;2022-10-16T02:30:34;5.20;;;1.40;;
64915;SDS011;51427;-27.442;153.014;2022-10-16T02:32:57;3.38;;;1.20;;
64915;SDS011;51427;-27.442;153.014;2022-10-16T02:35:26;5.97;;;1.65;;
64915;SDS011;51427;-27.442;153.014;2022-10-16T02:37:55;3.55;;;1.40;;
64915;SDS011;51427;-27.442;153.014;2022-10-16T02:40:23;4.63;;;1.60;;
64915;SDS011;51427;-27.442;153.014;2022-10-16T02:42:52;6.47;;;2.13;;
64915;SDS011;51427;-27.442;153.014;2022-10-16T02:45:21;4.88;;;1.65;;
64915;SDS011;51427;-27.442;153.014;2022-10-16T02:47:49;5.32;;;1.33;;
64915;SDS011;51427;-27.442;153.014;2022-10-16T02:50:16;5.85;;;1.70;;
64915;SDS011;51427;-27.442;153.014;2022-10-16T02:52:44;3.95;;;1.50;;
64915;SDS011;51427;-27.442;153.014;2022-10-16T02:55:11;5.18;;;1.40;;
64915;SDS011;51427;-27.442;153.014;2022-10-16T02:57:38;5.00;;;1.30;;
64915;SDS011;51427;-27.442;153.014;2022-10-16T03:00:06;7.70;;;1.58;;
64915;SDS011;51427;-27.442;153.014;2022-10-16T03:02:35;5.13;;;1.48;;
64915;SDS011;51427;-27.442;153.014;2022-10-16T03:05:02;3.60;;;1.45;;
64915;SDS011;51427;-27.442;153.014;2022-10-16T03:07:30;2.80;;;1.00;;
64915;SDS011;51427;-27.442;153.014;2022-10-16T03:09:57;4.85;;;1.25;;
64915;SDS011;51427;-27.442;153.014;2022-10-16T03:12:28;3.22;;;1.48;;
64915;SDS011;51427;-27.442;153.014;2022-10-16T03:14:55;7.13;;;1.50;;
64915;SDS011;51427;-27.442;153.014;2022-10-16T03:17:23;4.90;;;1.25;;
64915;SDS011;51427;-27.442;153.014;2022-10-16T03:19:51;4.68;;;1.48;;
64915;SDS011;51427;-27.442;153.014;2022-10-16T03:22:18;3.65;;;1.17;;
64915;SDS011;51427;-27.442;153.014;2022-10-16T03:24:45;2.55;;;1.20;;
64915;SDS011;51427;-27.442;153.014;2022-10-16T03:27:12;3.22;;;1.35;;
64915;SDS011;51427;-27.442;153.014;2022-10-16T03:29:39;4.63;;;1.50;;
64915;SDS011;51427;-27.442;153.014;2022-10-16T03:32:07;2.67;;;1.50;;
64915;SDS011;51427;-27.442;153.014;2022-10-16T03:34:34;3.80;;;1.33;;
64915;SDS011;51427;-27.442;153.014;2022-10-16T03:37:01;4.43;;;1.30;;
64915;SDS011;51427;-27.442;153.014;2022-10-16T03:39:29;7.40;;;1.70;;
64915;SDS011;51427;-27.442;153.014;2022-10-16T03:41:56;7.70;;;1.88;;
64915;SDS011;51427;-27.442;153.014;2022-10-16T03:44:23;4.85;;;1.25;;
64915;SDS011;51427;-27.442;153.014;2022-10-16T03:46:50;6.28;;;1.42;;
64915;SDS011;51427;-27.442;153.014;2022-10-16T03:49:18;4.97;;;1.20;;
64915;SDS011;51427;-27.442;153.014;2022-10-16T03:51:45;6.50;;;1.40;;
64915;SDS011;51427;-27.442;153.014;2022-10-16T03:54:12;3.00;;;1.33;;
64915;SDS011;51427;-27.442;153.014;2022-10-16T03:56:39;7.75;;;1.55;;
64915;SDS011;51427;-27.442;153.014;2022-10-16T03:59:06;3.78;;;1.00;;
64915;SDS011;51427;-27.442;153.014;2022-10-16T04:01:34;5.72;;;1.35;;
64915;SDS011;51427;-27.442;153.014;2022-10-16T04:04:01;6.53;;;1.70;;
64915;SDS011;51427;-27.442;153.014;2022-10-16T04:06:28;5.78;;;1.40;;
64915;SDS011;51427;-27.442;153.014;2022-10-16T04:08:55;4.80;;;1.30;;
64915;SDS011;51427;-27.442;153.014;2022-10-16T04:11:23;6.40;;;1.45;;
64915;SDS011;51427;-27.442;153.014;2022-10-16T04:13:50;5.00;;;1.52;;
64915;SDS011;51427;-27.442;153.014;2022-10-16T04:16:17;4.05;;;1.27;;
64915;SDS011;51427;-27.442;153.014;2022-10-16T04:18:44;3.25;;;1.10;;
64915;SDS011;51427;-27.442;153.014;2022-10-16T04:21:11;6.22;;;1.35;;
64915;SDS011;51427;-27.442;153.014;2022-10-16T04:23:39;4.85;;;1.13;;
64915;SDS011;51427;-27.442;153.014;2022-10-16T04:26:06;5.32;;;1.40;;
64915;SDS011;51427;-27.442;153.014;2022-10-16T04:28:33;3.88;;;1.02;;
64915;SDS011;51427;-27.442;153.014;2022-10-16T04:31:03;4.80;;;1.25;;
64915;SDS011;51427;-27.442;153.014;2022-10-16T04:33:31;8.15;;;1.90;;
64915;SDS011;51427;-27.442;153.014;2022-10-16T04:35:59;7.18;;;2.70;;
64915;SDS011;51427;-27.442;153.014;2022-10-16T04:38:27;5.60;;;1.65;;
64915;SDS011;51427;-27.442;153.014;2022-10-16T04:40:54;3.17;;;1.10;;
64915;SDS011;51427;-27.442;153.014;2022-10-16T04:43:22;5.82;;;1.88;;
64915;SDS011;51427;-27.442;153.014;2022-10-16T04:45:49;9.23;;;2.13;;
64915;SDS011;51427;-27.442;153.014;2022-10-16T04:48:17;6.45;;;1.73;;
64915;SDS011;51427;-27.442;153.014;2022-10-16T04:50:44;5.20;;;1.23;;
64915;SDS011;51427;-27.442;153.014;2022-10-16T04:53:12;7.47;;;2.00;;
64915;SDS011;51427;-27.442;153.014;2022-10-16T04:55:39;5.43;;;1.33;;
64915;SDS011;51427;-27.442;153.014;2022-10-16T04:58:07;7.03;;;1.70;;
64915;SDS011;51427;-27.442;153.014;2022-10-16T05:00:35;4.53;;;1.00;;
64915;SDS011;51427;-27.442;153.014;2022-10-16T05:03:03;5.68;;;1.35;;
64915;SDS011;51427;-27.442;153.014;2022-10-16T05:05:33;5.78;;;1.52;;
64915;SDS011;51427;-27.442;153.014;2022-10-16T05:08:02;3.88;;;1.20;;
64915;SDS011;51427;-27.442;153.014;2022-10-16T05:10:29;6.82;;;1.90;;
64915;SDS011;51427;-27.442;153.014;2022-10-16T05:12:57;5.97;;;1.20;;
64915;SDS011;51427;-27.442;153.014;2022-10-16T05:15:24;4.63;;;1.45;;
64915;SDS011;51427;-27.442;153.014;2022-10-16T05:17:54;4.35;;;1.50;;
64915;SDS011;51427;-27.442;153.014;2022-10-16T05:20:22;6.75;;;1.30;;
64915;SDS011;51427;-27.442;153.014;2022-10-16T05:22:50;4.93;;;1.20;;
64915;SDS011;51427;-27.442;153.014;2022-10-16T05:25:17;4.80;;;1.35;;
64915;SDS011;51427;-27.442;153.014;2022-10-16T05:27:47;6.13;;;1.60;;
64915;SDS011;51427;-27.442;153.014;2022-10-16T05:30:16;4.30;;;1.50;;
64915;SDS011;51427;-27.442;153.014;2022-10-16T05:32:49;3.17;;;1.08;;
64915;SDS011;51427;-27.442;153.014;2022-10-16T05:35:18;5.20;;;1.15;;
64915;SDS011;51427;-27.442;153.014;2022-10-16T05:37:46;6.38;;;1.95;;
64915;SDS011;51427;-27.442;153.014;2022-10-16T05:40:13;2.90;;;1.25;;
64915;SDS011;51427;-27.442;153.014;2022-10-16T05:42:42;5.20;;;1.60;;
64915;SDS011;51427;-27.442;153.014;2022-10-16T05:45:10;5.05;;;1.27;;
64915;SDS011;51427;-27.442;153.014;2022-10-16T05:47:38;3.75;;;1.60;;
64915;SDS011;51427;-27.442;153.014;2022-10-16T05:50:05;4.30;;;1.60;;
64915;SDS011;51427;-27.442;153.014;2022-10-16T05:52:33;4.72;;;1.38;;
64915;SDS011;51427;-27.442;153.014;2022-10-16T05:55:00;5.70;;;1.40;;
64915;SDS011;51427;-27.442;153.014;2022-10-16T05:57:27;2.53;;;1.50;;
64915;SDS011;51427;-27.442;153.014;2022-10-16T05:59:55;6.47;;;1.17;;
64915;SDS011;51427;-27.442;153.014;2022-10-16T06:02:22;3.60;;;1.10;;
64915;SDS011;51427;-27.442;153.014;2022-10-16T06:04:51;5.78;;;1.30;;
64915;SDS011;51427;-27.442;153.014;2022-10-16T06:07:21;5.93;;;1.10;;
64915;SDS011;51427;-27.442;153.014;2022-10-16T06:09:49;7.25;;;1.30;;
64915;SDS011;51427;-27.442;153.014;2022-10-16T06:12:18;6.65;;;1.20;;
64915;SDS011;51427;-27.442;153.014;2022-10-16T06:14:46;7.65;;;1.02;;
64915;SDS011;51427;-27.442;153.014;2022-10-16T06:17:14;5.13;;;1.50;;
64915;SDS011;51427;-27.442;153.014;2022-10-16T06:19:41;5.25;;;1.10;;
64915;SDS011;51427;-27.442;153.014;2022-10-16T06:22:09;3.38;;;1.55;;
64915;SDS011;51427;-27.442;153.014;2022-10-16T06:24:36;4.38;;;1.10;;
64915;SDS011;51427;-27.442;153.014;2022-10-16T06:27:04;3.28;;;1.23;;
64915;SDS011;51427;-27.442;153.014;2022-10-16T06:29:31;5.82;;;1.50;;
64915;SDS011;51427;-27.442;153.014;2022-10-16T06:31:58;4.90;;;1.25;;
64915;SDS011;51427;-27.442;153.014;2022-10-16T06:34:26;2.88;;;1.20;;
64915;SDS011;51427;-27.442;153.014;2022-10-16T06:36:53;6.50;;;1.55;;
64915;SDS011;51427;-27.442;153.014;2022-10-16T06:39:20;6.20;;;1.33;;
64915;SDS011;51427;-27.442;153.014;2022-10-16T06:41:48;6.78;;;1.33;;
64915;SDS011;51427;-27.442;153.014;2022-10-16T06:44:15;4.93;;;1.73;;
64915;SDS011;51427;-27.442;153.014;2022-10-16T06:46:42;5.10;;;1.17;;
64915;SDS011;51427;-27.442;153.014;2022-10-16T06:49:09;5.95;;;1.13;;
64915;SDS011;51427;-27.442;153.014;2022-10-16T06:51:37;2.50;;;1.35;;
64915;SDS011;51427;-27.442;153.014;2022-10-16T06:54:06;5.50;;;1.55;;
64915;SDS011;51427;-27.442;153.014;2022-10-16T06:56:34;2.60;;;1.23;;
64915;SDS011;51427;-27.442;153.014;2022-10-16T06:59:01;6.00;;;1.40;;
64915;SDS011;51427;-27.442;153.014;2022-10-16T07:01:29;5.00;;;1.40;;
64915;SDS011;51427;-27.442;153.014;2022-10-16T07:03:57;2.67;;;1.13;;
64915;SDS011;51427;-27.442;153.014;2022-10-16T07:06:25;7.40;;;1.60;;
64915;SDS011;51427;-27.442;153.014;2022-10-16T07:08:53;3.28;;;1.10;;
64915;SDS011;51427;-27.442;153.014;2022-10-16T07:11:21;5.25;;;1.25;;
64915;SDS011;51427;-27.442;153.014;2022-10-16T07:13:50;4.32;;;1.15;;
64915;SDS011;51427;-27.442;153.014;2022-10-16T07:16:18;3.75;;;1.33;;
64915;SDS011;51427;-27.442;153.014;2022-10-16T07:18:47;6.22;;;1.40;;
64915;SDS011;51427;-27.442;153.014;2022-10-16T07:21:20;4.40;;;1.45;;
64915;SDS011;51427;-27.442;153.014;2022-10-16T07:23:51;5.43;;;1.40;;
64915;SDS011;51427;-27.442;153.014;2022-10-16T07:26:20;3.03;;;1.40;;
64915;SDS011;51427;-27.442;153.014;2022-10-16T07:28:48;4.10;;;0.95;;
64915;SDS011;51427;-27.442;153.014;2022-10-16T07:31:16;3.50;;;1.27;;
64915;SDS011;51427;-27.442;153.014;2022-10-16T07:33:44;3.42;;;1.17;;
64915;SDS011;51427;-27.442;153.014;2022-10-16T07:36:14;3.55;;;1.38;;
64915;SDS011;51427;-27.442;153.014;2022-10-16T07:38:43;7.60;;;1.35;;
64915;SDS011;51427;-27.442;153.014;2022-10-16T07:41:13;4.80;;;1.20;;
64915;SDS011;51427;-27.442;153.014;2022-10-16T07:43:51;4.45;;;1.40;;
64915;SDS011;51427;-27.442;153.014;2022-10-16T07:46:20;4.78;;;1.30;;
64915;SDS011;51427;-27.442;153.014;2022-10-16T07:48:49;5.55;;;1.55;;
64915;SDS011;51427;-27.442;153.014;2022-10-16T07:51:17;4.32;;;1.02;;
64915;SDS011;51427;-27.442;153.014;2022-10-16T07:53:46;3.78;;;1.20;;
64915;SDS011;51427;-27.442;153.014;2022-10-16T07:56:14;3.30;;;1.63;;
64915;SDS011;51427;-27.442;153.014;2022-10-16T07:58:42;5.45;;;1.40;;
64915;SDS011;51427;-27.442;153.014;2022-10-16T08:01:10;3.97;;;1.48;;
64915;SDS011;51427;-27.442;153.014;2022-10-16T08:03:49;4.90;;;1.30;;
64915;SDS011;51427;-27.442;153.014;2022-10-16T08:06:17;5.03;;;1.77;;
64915;SDS011;51427;-27.442;153.014;2022-10-16T08:08:46;2.25;;;1.50;;
64915;SDS011;51427;-27.442;153.014;2022-10-16T08:11:14;3.60;;;1.25;;
64915;SDS011;51427;-27.442;153.014;2022-10-16T08:13:41;5.15;;;1.83;;
64915;SDS011;51427;-27.442;153.014;2022-10-16T08:16:09;6.72;;;1.40;;
64915;SDS011;51427;-27.442;153.014;2022-10-16T08:18:37;4.53;;;1.80;;
64915;SDS011;51427;-27.442;153.014;2022-10-16T08:21:06;3.13;;;1.05;;
64915;SDS011;51427;-27.442;153.014;2022-10-16T08:23:34;1.80;;;0.95;;
64915;SDS011;51427;-27.442;153.014;2022-10-16T08:26:03;4.05;;;1.05;;
64915;SDS011;51427;-27.442;153.014;2022-10-16T08:28:32;3.65;;;1.27;;
64915;SDS011;51427;-27.442;153.014;2022-10-16T08:31:09;5.45;;;1.58;;
64915;SDS011;51427;-27.442;153.014;2022-10-16T08:33:42;7.18;;;1.65;;
64915;SDS011;51427;-27.442;153.014;2022-10-16T08:36:12;8.57;;;1.75;;
64915;SDS011;51427;-27.442;153.014;2022-10-16T08:38:40;7.63;;;1.77;;
64915;SDS011;51427;-27.442;153.014;2022-10-16T08:41:20;7.47;;;1.90;;
64915;SDS011;51427;-27.442;153.014;2022-10-16T08:49:28;5.07;;;1.20;;
64915;SDS011;51427;-27.442;153.014;2022-10-16T08:51:57;4.28;;;1.30;;
64915;SDS011;51427;-27.442;153.014;2022-10-16T08:54:30;8.50;;;1.30;;
64915;SDS011;51427;-27.442;153.014;2022-10-16T08:57:09;3.85;;;1.20;;
64915;SDS011;51427;-27.442;153.014;2022-10-16T08:59:43;7.25;;;1.95;;
64915;SDS011;51427;-27.442;153.014;2022-10-16T09:02:19;4.30;;;1.48;;
64915;SDS011;51427;-27.442;153.014;2022-10-16T09:16:18;5.00;;;1.27;;
64915;SDS011;51427;-27.442;153.014;2022-10-16T09:21:38;4.35;;;1.30;;
64915;SDS011;51427;-27.442;153.014;2022-10-16T09:24:21;3.65;;;1.33;;
64915;SDS011;51427;-27.442;153.014;2022-10-16T09:26:51;4.55;;;1.50;;
64915;SDS011;51427;-27.442;153.014;2022-10-16T09:29:19;2.53;;;0.93;;
64915;SDS011;51427;-27.442;153.014;2022-10-16T09:31:50;2.10;;;1.15;;
64915;SDS011;51427;-27.442;153.014;2022-10-16T09:34:30;5.15;;;1.45;;
64915;SDS011;51427;-27.442;153.014;2022-10-16T09:37:04;2.42;;;1.17;;
64915;SDS011;51427;-27.442;153.014;2022-10-16T09:39:45;4.50;;;1.42;;
64915;SDS011;51427;-27.442;153.014;2022-10-16T09:42:26;4.28;;;1.10;;
64915;SDS011;51427;-27.442;153.014;2022-10-16T09:44:57;4.28;;;1.33;;
64915;SDS011;51427;-27.442;153.014;2022-10-16T09:47:25;7.63;;;1.20;;
64915;SDS011;51427;-27.442;153.014;2022-10-16T09:50:01;3.67;;;1.33;;
64915;SDS011;51427;-27.442;153.014;2022-10-16T09:52:46;5.40;;;1.30;;
64915;SDS011;51427;-27.442;153.014;2022-10-16T09:55:14;7.18;;;1.60;;
64915;SDS011;51427;-27.442;153.014;2022-10-16T09:57:53;3.33;;;1.05;;
64915;SDS011;51427;-27.442;153.014;2022-10-16T10:00:21;6.93;;;1.58;;
64915;SDS011;51427;-27.442;153.014;2022-10-16T10:02:49;5.38;;;1.15;;
64915;SDS011;51427;-27.442;153.014;2022-10-16T10:05:24;4.25;;;1.48;;
64915;SDS011;51427;-27.442;153.014;2022-10-16T10:08:00;6.45;;;1.83;;
64915;SDS011;51427;-27.442;153.014;2022-10-16T10:10:32;4.13;;;1.30;;
64915;SDS011;51427;-27.442;153.014;2022-10-16T10:13:03;4.72;;;0.90;;
64915;SDS011;51427;-27.442;153.014;2022-10-16T10:15:33;2.88;;;0.93;;
64915;SDS011;51427;-27.442;153.014;2022-10-16T10:18:02;3.33;;;1.10;;
64915;SDS011;51427;-27.442;153.014;2022-10-16T10:20:42;3.25;;;1.05;;
64915;SDS011;51427;-27.442;153.014;2022-10-16T10:23:23;8.10;;;1.40;;
64915;SDS011;51427;-27.442;153.014;2022-10-16T10:28:42;2.92;;;0.93;;
64915;SDS011;51427;-27.442;153.014;2022-10-16T10:31:21;5.85;;;1.60;;
64915;SDS011;51427;-27.442;153.014;2022-10-16T10:34:07;4.03;;;1.20;;
64915;SDS011;51427;-27.442;153.014;2022-10-16T10:45:48;6.13;;;1.20;;
64915;SDS011;51427;-27.442;153.014;2022-10-16T10:51:18;3.42;;;1.20;;
64915;SDS011;51427;-27.442;153.014;2022-10-16T10:53:56;3.28;;;1.20;;
64915;SDS011;51427;-27.442;153.014;2022-10-16T10:59:27;2.75;;;1.20;;
64915;SDS011;51427;-27.442;153.014;2022-10-16T11:05:02;2.90;;;1.17;;
64915;SDS011;51427;-27.442;153.014;2022-10-16T11:07:38;3.15;;;1.20;;
64915;SDS011;51427;-27.442;153.014;2022-10-16T11:10:20;3.72;;;1.27;;
64915;SDS011;51427;-27.442;153.014;2022-10-16T11:16:00;5.07;;;1.25;;
64915;SDS011;51427;-27.442;153.014;2022-10-16T11:21:51;3.10;;;1.30;;
64915;SDS011;51427;-27.442;153.014;2022-10-16T11:27:36;3.33;;;1.55;;
64915;SDS011;51427;-27.442;153.014;2022-10-16T11:30:05;3.78;;;1.67;;
64915;SDS011;51427;-27.442;153.014;2022-10-16T11:33:29;4.97;;;1.60;;
64915;SDS011;51427;-27.442;153.014;2022-10-16T11:36:00;6.10;;;1.95;;
64915;SDS011;51427;-27.442;153.014;2022-10-16T11:41:37;5.35;;;2.10;;
64915;SDS011;51427;-27.442;153.014;2022-10-16T11:44:33;7.10;;;2.25;;
64915;SDS011;51427;-27.442;153.014;2022-10-16T11:49:37;7.57;;;2.50;;
64915;SDS011;51427;-27.442;153.014;2022-10-16T11:52:53;7.63;;;2.55;;
64915;SDS011;51427;-27.442;153.014;2022-10-16T11:55:20;7.78;;;2.75;;
64915;SDS011;51427;-27.442;153.014;2022-10-16T11:57:54;8.45;;;2.63;;
64915;SDS011;51427;-27.442;153.014;2022-10-16T12:00:35;8.27;;;2.78;;
64915;SDS011;51427;-27.442;153.014;2022-10-16T12:08:54;6.65;;;2.60;;
64915;SDS011;51427;-27.442;153.014;2022-10-16T12:17:22;4.80;;;2.50;;
64915;SDS011;51427;-27.442;153.014;2022-10-16T12:20:01;6.47;;;2.28;;
64915;SDS011;51427;-27.442;153.014;2022-10-16T12:23:46;7.13;;;2.08;;
64915;SDS011;51427;-27.442;153.014;2022-10-16T12:25:53;7.03;;;2.10;;
64915;SDS011;51427;-27.442;153.014;2022-10-16T12:28:31;9.85;;;2.20;;
64915;SDS011;51427;-27.442;153.014;2022-10-16T12:33:35;7.10;;;2.30;;
64915;SDS011;51427;-27.442;153.014;2022-10-16T12:36:15;4.05;;;1.70;;
64915;SDS011;51427;-27.442;153.014;2022-10-16T12:38:53;6.53;;;2.70;;
64915;SDS011;51427;-27.442;153.014;2022-10-16T12:41:38;5.78;;;2.05;;
64915;SDS011;51427;-27.442;153.014;2022-10-16T12:44:20;7.50;;;2.53;;
64915;SDS011;51427;-27.442;153.014;2022-10-16T12:46:53;8.43;;;1.90;;
64915;SDS011;51427;-27.442;153.014;2022-10-16T12:49:22;7.40;;;2.42;;
64915;SDS011;51427;-27.442;153.014;2022-10-16T12:52:04;6.38;;;1.77;;
64915;SDS011;51427;-27.442;153.014;2022-10-16T12:54:49;6.32;;;1.70;;
64915;SDS011;51427;-27.442;153.014;2022-10-16T12:57:26;4.03;;;1.60;;
64915;SDS011;51427;-27.442;153.014;2022-10-16T13:03:23;8.02;;;1.67;;
64915;SDS011;51427;-27.442;153.014;2022-10-16T13:12:14;8.15;;;2.10;;
64915;SDS011;51427;-27.442;153.014;2022-10-16T13:15:28;2.90;;;1.80;;
64915;SDS011;51427;-27.442;153.014;2022-10-16T13:29:02;3.05;;;1.50;;
64915;SDS011;51427;-27.442;153.014;2022-10-16T13:31:30;4.45;;;2.03;;
64915;SDS011;51427;-27.442;153.014;2022-10-16T13:33:59;6.35;;;2.38;;
64915;SDS011;51427;-27.442;153.014;2022-10-16T13:36:28;6.55;;;1.85;;
64915;SDS011;51427;-27.442;153.014;2022-10-16T13:42:03;5.20;;;2.10;;
64915;SDS011;51427;-27.442;153.014;2022-10-16T13:44:38;3.92;;;1.92;;
64915;SDS011;51427;-27.442;153.014;2022-10-16T13:47:20;6.82;;;1.63;;
64915;SDS011;51427;-27.442;153.014;2022-10-16T13:50:02;6.32;;;1.77;;
64915;SDS011;51427;-27.442;153.014;2022-10-16T13:52:31;5.88;;;1.73;;
64915;SDS011;51427;-27.442;153.014;2022-10-16T13:54:59;6.78;;;2.03;;
64915;SDS011;51427;-27.442;153.014;2022-10-16T13:57:26;4.80;;;1.83;;
64915;SDS011;51427;-27.442;153.014;2022-10-16T13:59:53;4.93;;;1.77;;
64915;SDS011;51427;-27.442;153.014;2022-10-16T14:02:22;4.60;;;1.88;;
64915;SDS011;51427;-27.442;153.014;2022-10-16T14:04:53;7.15;;;1.90;;
64915;SDS011;51427;-27.442;153.014;2022-10-16T14:07:25;4.60;;;2.00;;
64915;SDS011;51427;-27.442;153.014;2022-10-16T14:09:55;3.40;;;2.13;;
64915;SDS011;51427;-27.442;153.014;2022-10-16T14:12:25;4.13;;;2.03;;
64915;SDS011;51427;-27.442;153.014;2022-10-16T14:14:53;3.65;;;1.73;;
64915;SDS011;51427;-27.442;153.014;2022-10-16T14:17:23;5.88;;;2.10;;
64915;SDS011;51427;-27.442;153.014;2022-10-16T14:19:54;6.53;;;1.90;;
64915;SDS011;51427;-27.442;153.014;2022-10-16T14:22:40;4.45;;;1.67;;
64915;SDS011;51427;-27.442;153.014;2022-10-16T14:27:58;4.70;;;2.33;;
64915;SDS011;51427;-27.442;153.014;2022-10-16T14:30:27;4.60;;;2.13;;
64915;SDS011;51427;-27.442;153.014;2022-10-16T14:32:57;3.58;;;1.70;;
64915;SDS011;51427;-27.442;153.014;2022-10-16T14:35:30;5.72;;;1.80;;
64915;SDS011;51427;-27.442;153.014;2022-10-16T14:38:00;4.30;;;1.80;;
64915;SDS011;51427;-27.442;153.014;2022-10-16T14:40:30;3.63;;;1.83;;
64915;SDS011;51427;-27.442;153.014;2022-10-16T14:43:00;3.55;;;2.00;;
64915;SDS011;51427;-27.442;153.014;2022-10-16T14:45:30;4.85;;;2.00;;
64915;SDS011;51427;-27.442;153.014;2022-10-16T14:48:01;2.00;;;1.73;;
64915;SDS011;51427;-27.442;153.014;2022-10-16T14:50:40;3.90;;;2.17;;
64915;SDS011;51427;-27.442;153.014;2022-10-16T14:53:10;4.63;;;2.03;;
64915;SDS011;51427;-27.442;153.014;2022-10-16T14:55:38;6.05;;;2.28;;
64915;SDS011;51427;-27.442;153.014;2022-10-16T14:58:13;6.18;;;2.10;;
64915;SDS011;51427;-27.442;153.014;2022-10-16T15:00:43;3.30;;;2.17;;
64915;SDS011;51427;-27.442;153.014;2022-10-16T15:03:10;5.20;;;1.80;;
64915;SDS011;51427;-27.442;153.014;2022-10-16T15:05:38;5.07;;;1.77;;
64915;SDS011;51427;-27.442;153.014;2022-10-16T15:08:05;5.35;;;2.05;;
64915;SDS011;51427;-27.442;153.014;2022-10-16T15:10:33;3.33;;;1.60;;
64915;SDS011;51427;-27.442;153.014;2022-10-16T15:13:08;7.65;;;2.30;;
64915;SDS011;51427;-27.442;153.014;2022-10-16T15:15:43;5.38;;;2.00;;
64915;SDS011;51427;-27.442;153.014;2022-10-16T15:18:11;3.33;;;1.90;;
64915;SDS011;51427;-27.442;153.014;2022-10-16T15:20:40;4.05;;;1.85;;
64915;SDS011;51427;-27.442;153.014;2022-10-16T15:23:19;4.55;;;2.00;;
64915;SDS011;51427;-27.442;153.014;2022-10-16T15:28:15;7.32;;;2.65;;
64915;SDS011;51427;-27.442;153.014;2022-10-16T15:30:43;3.45;;;1.70;;
64915;SDS011;51427;-27.442;153.014;2022-10-16T15:33:16;4.30;;;1.70;;
64915;SDS011;51427;-27.442;153.014;2022-10-16T15:35:51;4.38;;;1.83;;
64915;SDS011;51427;-27.442;153.014;2022-10-16T15:38:19;2.92;;;1.58;;
64915;SDS011;51427;-27.442;153.014;2022-10-16T15:40:48;5.60;;;1.63;;
64915;SDS011;51427;-27.442;153.014;2022-10-16T15:43:16;6.15;;;2.20;;
64915;SDS011;51427;-27.442;153.014;2022-10-16T15:45:44;8.52;;;2.10;;
64915;SDS011;51427;-27.442;153.014;2022-10-16T15:48:29;3.28;;;1.73;;
64915;SDS011;51427;-27.442;153.014;2022-10-16T15:50:56;2.22;;;1.90;;
64915;SDS011;51427;-27.442;153.014;2022-10-16T15:53:24;8.27;;;2.15;;
64915;SDS011;51427;-27.442;153.014;2022-10-16T15:55:51;4.80;;;2.10;;
64915;SDS011;51427;-27.442;153.014;2022-10-16T15:58:19;3.83;;;2.10;;
64915;SDS011;51427;-27.442;153.014;2022-10-16T16:00:53;4.72;;;1.63;;
64915;SDS011;51427;-27.442;153.014;2022-10-16T16:03:22;5.15;;;1.83;;
64915;SDS011;51427;-27.442;153.014;2022-10-16T16:05:50;3.38;;;1.80;;
64915;SDS011;51427;-27.442;153.014;2022-10-16T16:08:17;3.65;;;1.60;;
64915;SDS011;51427;-27.442;153.014;2022-10-16T16:10:45;5.40;;;1.73;;
64915;SDS011;51427;-27.442;153.014;2022-10-16T16:13:12;4.63;;;1.80;;
64915;SDS011;51427;-27.442;153.014;2022-10-16T16:15:40;2.95;;;1.75;;
64915;SDS011;51427;-27.442;153.014;2022-10-16T16:18:07;9.00;;;1.90;;
64915;SDS011;51427;-27.442;153.014;2022-10-16T16:20:35;6.50;;;2.22;;
64915;SDS011;51427;-27.442;153.014;2022-10-16T16:23:02;4.75;;;1.70;;
64915;SDS011;51427;-27.442;153.014;2022-10-16T16:25:29;6.03;;;2.22;;
64915;SDS011;51427;-27.442;153.014;2022-10-16T16:27:56;5.43;;;2.22;;
64915;SDS011;51427;-27.442;153.014;2022-10-16T16:30:24;5.80;;;2.03;;
64915;SDS011;51427;-27.442;153.014;2022-10-16T16:32:51;2.80;;;1.90;;